Time;durP1;ratioP1;P1;durP2;ratioP2;P2;SDS_P1;SDS_P2;PMS_P1;PMS_P2;Temp;Humidity;BMP_temperature;BMP_pressure;BME280_temperature;BME280_humidity;BME280_pressure;Samples;Min_cycle;Max_cycle;Signal;HPM_P1;HPM_P2
2022/07/11 00:00:54;;;;;;;29.50;12.15;;;;;;;13.80;94.28;102300.88;5053414;28;20064;-44
2022/07/11 00:03:19;;;;;;;24.95;12.05;;;;;;;13.71;94.22;102306.59;5053497;28;20024;-45
2022/07/11 00:05:44;;;;;;;20.77;10.85;;;;;;;13.63;94.17;102310.56;5052721;28;20025;-41
2022/07/11 00:08:10;;;;;;;21.80;11.43;;;;;;;13.57;94.73;102302.56;5053357;28;20028;-42
2022/07/11 00:10:35;;;;;;;23.27;12.63;;;;;;;13.48;94.76;102303.09;5053106;28;20033;-42
2022/07/11 00:13:00;;;;;;;22.42;12.52;;;;;;;13.45;95.10;102302.94;5052764;28;20547;-43
2022/07/11 00:15:26;;;;;;;21.98;12.27;;;;;;;13.39;95.02;102301.00;5053106;28;20024;-42
2022/07/11 00:17:51;;;;;;;23.40;12.35;;;;;;;13.37;95.97;102300.03;5053054;28;20464;-43
2022/07/11 00:20:19;;;;;;;25.70;12.20;;;;;;;13.34;96.03;102298.16;5052622;28;20442;-40
2022/07/11 00:22:44;;;;;;;26.10;12.25;;;;;;;13.37;96.31;102296.56;5053110;28;20029;-44
2022/07/11 00:25:09;;;;;;;27.02;12.80;;;;;;;13.35;96.15;102296.47;5052870;28;20099;-40
2022/07/11 00:27:35;;;;;;;21.23;11.25;;;;;;;13.26;95.44;102296.97;5052610;28;20430;-43
2022/07/11 00:30:00;;;;;;;23.08;11.95;;;;;;;13.12;94.89;102298.97;5052843;28;20029;-42
2022/07/11 00:32:25;;;;;;;19.98;12.15;;;;;;;13.03;95.37;102285.66;5052310;28;20136;-42
2022/07/11 00:34:51;;;;;;;20.73;12.13;;;;;;;12.95;95.90;102294.78;5052971;28;20472;-45
2022/07/11 00:37:16;;;;;;;21.05;13.32;;;;;;;12.87;96.19;102284.09;5052819;28;20032;-44
2022/07/11 00:39:42;;;;;;;29.13;14.07;;;;;;;12.82;96.82;102283.91;5052038;28;20032;-40
2022/07/11 00:42:07;;;;;;;31.23;14.73;;;;;;;12.82;97.46;102289.09;5052690;28;20021;-41
2022/07/11 00:44:32;;;;;;;25.02;14.43;;;;;;;12.78;97.67;102292.38;5052888;28;20376;-42
2022/07/11 00:46:58;;;;;;;25.25;15.38;;;;;;;12.80;98.53;102284.66;5052060;28;20120;-40
2022/07/11 00:49:23;;;;;;;27.15;14.38;;;;;;;12.77;98.04;102285.41;5052068;28;20025;-42
2022/07/11 00:51:49;;;;;;;34.47;15.82;;;;;;;12.78;98.96;102284.59;5052692;28;20021;-42
2022/07/11 00:54:16;;;;;;;31.95;16.58;;;;;;;12.78;99.27;102281.09;5051786;28;20068;-43
2022/07/11 00:56:42;;;;;;;33.60;16.55;;;;;;;12.76;98.76;102278.47;5052410;28;20052;-40
2022/07/11 00:59:08;;;;;;;32.15;16.45;;;;;;;12.80;99.39;102275.19;5052374;28;20033;-41
2022/07/11 01:01:37;;;;;;;39.35;18.88;;;;;;;12.84;100.00;102283.97;5052000;28;20029;-41
2022/07/11 01:04:03;;;;;;;41.15;18.08;;;;;;;12.91;100.00;102277.34;5052569;28;20025;-42
2022/07/11 01:06:28;;;;;;;33.25;16.80;;;;;;;12.91;100.00;102282.53;5052504;28;20492;-43
2022/07/11 01:08:54;;;;;;;32.30;15.93;;;;;;;12.89;100.00;102279.00;5051474;28;20032;-41
2022/07/11 01:11:20;;;;;;;35.13;15.80;;;;;;;12.87;99.75;102280.63;5052339;28;20431;-41
2022/07/11 01:13:46;;;;;;;31.15;16.48;;;;;;;12.87;100.00;102280.63;5052242;28;20033;-42
2022/07/11 01:16:16;;;;;;;34.50;16.45;;;;;;;12.83;100.00;102280.50;5051893;28;20064;-41
2022/07/11 01:18:52;;;;;;;29.30;15.93;;;;;;;12.85;100.00;102277.97;5052459;28;20057;-42
2022/07/11 01:21:29;;;;;;;27.95;15.85;;;;;;;12.83;99.94;102272.75;5052206;28;20036;-43
2022/07/11 01:23:58;;;;;;;38.45;16.75;;;;;;;12.82;100.00;102273.56;5052244;28;20031;-42
2022/07/11 01:26:24;;;;;;;33.92;16.13;;;;;;;12.74;99.05;102274.91;5052094;28;20412;-42
2022/07/11 01:28:50;;;;;;;34.65;16.67;;;;;;;12.77;100.00;102277.66;5051678;28;20463;-44
2022/07/11 01:31:16;;;;;;;27.75;14.20;;;;;;;12.67;98.91;102278.94;5052182;28;20464;-41
2022/07/11 01:33:41;;;;;;;33.78;16.10;;;;;;;12.68;99.09;102274.66;5052374;28;20028;-44
2022/07/11 01:36:07;;;;;;;30.65;14.48;;;;;;;12.67;99.06;102278.06;5051475;28;20044;-41
2022/07/11 01:38:33;;;;;;;30.63;15.23;;;;;;;12.64;99.67;102277.91;5052115;28;20029;-42
2022/07/11 01:40:58;;;;;;;36.22;18.45;;;;;;;12.71;100.00;102274.78;5052113;28;20036;-41
2022/07/11 01:43:24;;;;;;;33.15;17.65;;;;;;;12.69;100.00;102281.59;5051466;28;20032;-42
2022/07/11 01:45:54;;;;;;;34.95;18.08;;;;;;;12.76;100.00;102278.47;5052206;28;20025;-41
2022/07/11 01:48:19;;;;;;;48.80;21.75;;;;;;;12.91;100.00;102278.25;5052112;28;20025;-44
2022/07/11 01:50:45;;;;;;;40.72;20.25;;;;;;;12.96;100.00;102281.03;5051340;28;20082;-41
2022/07/11 01:53:11;;;;;;;47.47;21.65;;;;;;;13.04;100.00;102277.06;5051934;28;20110;-41
2022/07/11 01:55:36;;;;;;;46.25;21.80;;;;;;;13.12;100.00;102283.44;5052491;28;20056;-41
2022/07/11 01:58:02;;;;;;;42.53;20.08;;;;;;;13.18;100.00;102283.72;5050915;28;20488;-43
2022/07/11 02:00:27;;;;;;;46.35;21.67;;;;;;;13.23;100.00;102283.00;5052162;28;20029;-41
2022/07/11 02:02:53;;;;;;;42.63;20.05;;;;;;;13.26;100.00;102283.13;5051649;28;20032;-43
2022/07/11 02:05:18;;;;;;;56.75;23.98;;;;;;;13.35;100.00;102286.13;5051374;28;20145;-42
2022/07/11 02:10:29;;;;;;;40.20;19.73;;;;;;;13.43;100.00;102292.53;5051820;28;20544;-45
2022/07/11 02:12:56;;;;;;;36.08;18.95;;;;;;;13.45;100.00;102290.91;5051390;28;20018;-43
2022/07/11 02:15:22;;;;;;;;;;;;;;;13.53;100.00;102290.31;5052267;28;20044;-42
2022/07/11 02:17:47;;;;;;;55.23;23.40;;;;;;;13.58;100.00;102279.31;5051114;28;19917;-44
2022/07/11 02:20:12;;;;;;;56.63;23.52;;;;;;;13.65;100.00;102270.09;5051643;28;20023;-42
2022/07/11 02:22:37;;;;;;;60.15;25.83;;;;;;;13.71;100.00;102277.22;5054860;28;20048;-42
2022/07/11 02:25:03;;;;;;;54.72;25.35;;;;;;;13.76;100.00;102274.00;5054384;28;20029;-44
2022/07/11 02:27:28;;;;;;;53.80;24.88;;;;;;;13.80;100.00;102275.88;5055447;28;20443;-42
2022/07/11 02:29:53;;;;;;;58.63;25.08;;;;;;;13.86;100.00;102274.34;5055224;28;20025;-42
2022/07/11 02:32:19;;;;;;;56.92;25.42;;;;;;;13.89;100.00;102279.63;5054296;28;20040;-41
2022/07/11 02:34:44;;;;;;;57.65;25.55;;;;;;;13.91;100.00;102272.81;5055000;28;20044;-43
2022/07/11 02:37:09;;;;;;;62.60;26.23;;;;;;;13.93;100.00;102279.81;5054829;28;20056;-42
2022/07/11 02:39:34;;;;;;;58.83;25.60;;;;;;;13.96;100.00;102276.47;5054415;28;20032;-41
2022/07/11 02:42:00;;;;;;;52.80;25.05;;;;;;;13.97;100.00;102270.47;5055176;28;20040;-44
2022/07/11 02:44:25;;;;;;;58.00;25.25;;;;;;;13.99;100.00;102263.63;5055071;28;20104;-41
2022/07/11 02:46:50;;;;;;;61.63;26.25;;;;;;;14.03;100.00;102275.00;5054090;28;20039;-41
2022/07/11 02:49:16;;;;;;;59.03;25.83;;;;;;;14.02;100.00;102274.13;5054632;28;20452;-42
2022/07/11 02:51:41;;;;;;;54.30;23.88;;;;;;;14.05;100.00;102275.94;5054653;28;20041;-41
2022/07/11 02:54:06;;;;;;;55.13;25.60;;;;;;;14.09;100.00;102275.22;5054050;28;20438;-43
2022/07/11 02:56:32;;;;;;;52.28;23.05;;;;;;;14.12;100.00;102273.63;5054648;28;20080;-41
2022/07/11 02:58:58;;;;;;;51.25;24.17;;;;;;;14.13;100.00;102271.94;5054485;28;20035;-45
2022/07/11 03:01:23;;;;;;;46.90;23.52;;;;;;;14.18;100.00;102267.78;5053905;28;20028;-42
2022/07/11 03:03:48;;;;;;;46.10;23.38;;;;;;;14.18;100.00;102269.47;5054602;28;20025;-42
2022/07/11 03:06:14;;;;;;;42.75;22.48;;;;;;;14.18;100.00;102267.78;5054035;28;20052;-42
2022/07/11 03:08:39;;;;;;;50.03;22.85;;;;;;;14.19;100.00;102268.66;5054272;28;20040;-45
2022/07/11 03:11:05;;;;;;;52.35;23.88;;;;;;;14.20;100.00;102267.84;5054537;28;20051;-42
2022/07/11 03:13:31;;;;;;;51.75;22.45;;;;;;;14.19;100.00;102268.66;5054419;28;20048;-45
2022/07/11 03:15:56;;;;;;;47.92;21.92;;;;;;;14.23;100.00;102270.53;5053977;28;20061;-43
2022/07/11 03:18:21;;;;;;;48.60;21.20;;;;;;;14.23;100.00;102270.53;5054184;28;20395;-42
2022/07/11 03:20:46;;;;;;;55.22;22.25;;;;;;;14.23;100.00;102270.53;5053963;28;20029;-41
2022/07/11 03:23:12;;;;;;;45.10;21.95;;;;;;;14.23;100.00;102274.03;5053779;28;20376;-46
2022/07/11 03:25:37;;;;;;;44.28;21.83;;;;;;;14.24;100.00;102270.63;5054334;28;20029;-44
2022/07/11 03:28:03;;;;;;;44.10;20.70;;;;;;;14.26;100.00;102281.03;5053724;28;20107;-41
2022/07/11 03:30:28;;;;;;;45.78;21.08;;;;;;;14.27;100.00;102275.03;5053815;28;20387;-42
2022/07/11 03:32:54;;;;;;;47.13;21.70;;;;;;;14.29;100.00;102282.06;5053943;28;20389;-42
2022/07/11 03:38:03;;;;;;;49.90;21.40;;;;;;;14.34;100.00;102279.59;5053955;28;20048;-41
2022/07/11 03:40:28;;;;;;;45.00;21.17;;;;;;;14.36;100.00;102280.56;5054076;28;20380;-42
2022/07/11 03:42:53;;;;;;;50.78;22.50;;;;;;;14.37;100.00;102278.84;5053075;28;20024;-43
2022/07/11 03:45:18;;;;;;;45.88;21.13;;;;;;;14.38;100.00;102280.63;5053715;28;20473;-44
2022/07/11 03:47:44;;;;;;;46.20;20.77;;;;;;;14.41;100.00;102276.44;5053618;28;20024;-43
2022/07/11 03:50:09;;;;;;;44.92;21.42;;;;;;;14.45;100.00;102278.31;5053043;28;20041;-41
2022/07/11 03:52:34;;;;;;;41.47;19.05;;;;;;;14.48;100.00;102281.00;5053921;28;20029;-42
2022/07/11 03:54:59;;;;;;;41.67;19.55;;;;;;;14.52;100.00;102278.53;5053311;28;20021;-42
2022/07/11 03:57:25;;;;;;;43.70;19.45;;;;;;;14.56;100.00;102280.41;5052707;28;20044;-42
2022/07/11 03:59:50;;;;;;;41.83;19.67;;;;;;;14.58;100.00;102279.63;5053631;28;20388;-42
2022/07/11 04:02:15;;;;;;;43.28;19.65;;;;;;;14.58;100.00;102274.44;5053138;28;20110;-42
2022/07/11 04:04:40;;;;;;;44.05;19.70;;;;;;;14.61;100.00;102284.03;5052930;28;20396;-42
2022/07/11 04:07:06;;;;;;;41.17;19.30;;;;;;;14.64;100.00;102284.19;5053250;28;20108;-44
2022/07/11 04:09:31;;;;;;;40.65;19.75;;;;;;;14.64;100.00;102281.59;5053238;28;20021;-43
2022/07/11 04:11:56;;;;;;;49.30;21.00;;;;;;;14.68;100.00;102278.28;5052738;28;20020;-43
2022/07/11 04:14:22;;;;;;;35.80;19.33;;;;;;;14.70;100.00;102275.75;5053147;28;20361;-43
2022/07/11 04:16:47;;;;;;;42.47;19.95;;;;;;;14.74;100.00;102272.44;5052938;28;20048;-44
2022/07/11 04:19:12;;;;;;;40.22;20.00;;;;;;;14.80;100.00;102281.31;5052363;28;20076;-42
2022/07/11 04:21:37;;;;;;;40.83;19.08;;;;;;;14.86;100.00;102279.75;5053437;28;20197;-42
2022/07/11 04:24:03;;;;;;;35.45;18.73;;;;;;;14.86;100.00;102279.75;5052768;28;20021;-41
2022/07/11 04:26:28;;;;;;;36.50;19.17;;;;;;;14.88;100.00;102278.09;5052596;28;20377;-41
2022/07/11 04:28:53;;;;;;;43.17;19.67;;;;;;;14.92;100.00;102274.78;5052918;28;20032;-42
2022/07/11 04:31:19;;;;;;;41.10;18.58;;;;;;;14.95;100.00;102280.06;5052705;28;20021;-42
2022/07/11 04:33:44;;;;;;;44.50;20.48;;;;;;;14.94;99.67;102278.31;5052309;28;20029;-46
2022/07/11 04:36:09;;;;;;;35.88;18.48;;;;;;;14.95;100.00;102287.84;5052946;28;20029;-45
2022/07/11 04:38:35;;;;;;;40.63;18.92;;;;;;;14.97;100.00;102294.00;5052188;28;20388;-41
2022/07/11 04:41:00;;;;;;;40.17;19.23;;;;;;;14.96;100.00;102294.81;5052970;28;20044;-43
2022/07/11 04:43:25;;;;;;;40.92;18.05;;;;;;;14.97;100.00;102281.00;5052424;28;20056;-41
2022/07/11 04:45:50;;;;;;;43.30;20.13;;;;;;;14.95;100.00;102290.44;5051701;28;20388;-43
2022/07/11 04:48:16;;;;;;;41.90;18.95;;;;;;;14.95;99.91;102295.63;5052425;28;20373;-45
2022/07/11 04:50:44;;;;;;;37.92;17.85;;;;;;;14.98;100.00;102300.97;5052626;28;20017;-42
2022/07/11 04:53:11;;;;;;;31.83;18.35;;;;;;;14.97;100.00;102299.19;5051591;28;20419;-44
2022/07/11 04:55:39;;;;;;;35.85;17.95;;;;;;;15.02;100.00;102297.63;5052572;28;20025;-43
2022/07/11 04:58:04;;;;;;;35.03;17.15;;;;;;;15.05;100.00;102299.47;5052018;28;20049;-42
2022/07/11 05:00:29;;;;;;;40.35;18.15;;;;;;;15.09;100.00;102294.44;5051774;28;20029;-42
2022/07/11 05:02:55;;;;;;;36.20;16.42;;;;;;;15.12;100.00;102309.22;5052209;28;20025;-41
2022/07/11 05:05:21;;;;;;;29.35;15.88;;;;;;;15.14;100.00;102307.56;5052299;28;20071;-43
2022/07/11 05:07:47;;;;;;;33.85;16.92;;;;;;;15.17;100.00;102317.16;5051670;28;20083;-42
2022/07/11 05:10:12;;;;;;;36.92;15.82;;;;;;;15.17;100.00;102317.16;5052362;28;20025;-43
2022/07/11 05:12:37;;;;;;;31.70;15.30;;;;;;;15.18;100.00;102311.16;5052350;28;20035;-42
2022/07/11 05:15:03;;;;;;;33.10;16.23;;;;;;;15.21;100.00;102316.44;5051528;28;20357;-43
2022/07/11 05:17:28;;;;;;;32.40;15.32;;;;;;;15.19;100.00;102310.31;5052229;28;20468;-42
2022/07/11 05:19:54;;;;;;;35.55;16.15;;;;;;;15.22;100.00;102310.41;5052220;28;20075;-43
2022/07/11 05:22:19;;;;;;;33.15;15.63;;;;;;;15.25;99.87;102310.53;5051773;28;20036;-42
2022/07/11 05:24:45;;;;;;;33.83;15.80;;;;;;;15.26;99.62;102307.06;5052325;28;20028;-43
2022/07/11 05:27:10;;;;;;;35.70;16.35;;;;;;;15.30;99.41;102316.75;5051864;28;20087;-42
2022/07/11 05:29:35;;;;;;;37.20;16.08;;;;;;;15.31;99.43;102315.91;5051675;28;20047;-41
2022/07/11 05:32:00;;;;;;;28.35;15.23;;;;;;;15.33;99.30;102318.59;5052061;28;20032;-42
2022/07/11 05:34:26;;;;;;;34.15;14.70;;;;;;;15.37;99.21;102323.91;5051889;28;20025;-43
2022/07/11 05:36:52;;;;;;;37.58;15.32;;;;;;;15.41;99.01;102317.13;5051655;28;20028;-42
2022/07/11 05:39:17;;;;;;;30.98;14.80;;;;;;;15.44;99.04;102325.00;5052066;28;20029;-42
2022/07/11 05:41:42;;;;;;;32.72;15.43;;;;;;;15.44;98.97;102323.31;5051560;28;20468;-42
2022/07/11 05:44:07;;;;;;;32.70;15.10;;;;;;;15.48;99.30;102322.56;5051778;28;20025;-45
2022/07/11 05:46:33;;;;;;;32.55;14.90;;;;;;;15.48;98.96;102314.78;5052033;28;20036;-43
2022/07/11 05:48:58;;;;;;;29.17;13.65;;;;;;;15.54;98.75;102318.41;5051083;28;20025;-41
2022/07/11 05:51:23;;;;;;;32.92;15.05;;;;;;;15.54;98.67;102329.66;5052043;28;20049;-42
2022/07/11 05:53:49;;;;;;;29.15;14.00;;;;;;;15.58;98.51;102333.25;5052123;28;20063;-42
2022/07/11 05:56:14;;;;;;;33.55;15.18;;;;;;;15.55;98.63;102334.03;5052136;28;20092;-42
2022/07/11 05:58:40;;;;;;;31.25;14.52;;;;;;;15.55;98.92;102334.03;5055904;28;20107;-43
2022/07/11 06:01:05;;;;;;;31.65;13.75;;;;;;;15.53;98.57;102324.41;5055570;28;20021;-43
2022/07/11 06:03:30;;;;;;;31.13;13.43;;;;;;;15.51;98.50;102339.09;5055107;28;20033;-44
2022/07/11 06:05:56;;;;;;;27.08;13.10;;;;;;;15.48;98.90;102332.97;5055640;28;20021;-45
2022/07/11 06:11:05;;;;;;;29.65;11.77;;;;;;;15.47;99.06;102344.19;5055133;28;20537;-44
2022/07/11 06:13:30;;;;;;;28.08;12.40;;;;;;;15.47;98.82;102349.38;5055648;28;20040;-41
2022/07/11 06:15:58;;;;;;;24.08;11.93;;;;;;;15.46;99.40;102350.19;5055184;28;20027;-43
2022/07/11 06:18:23;;;;;;;21.75;10.23;;;;;;;15.47;98.83;102348.50;5055103;28;20113;-43
2022/07/11 06:20:49;;;;;;;17.05;8.68;;;;;;;15.47;98.17;102351.97;5055587;28;20029;-42
2022/07/11 06:23:15;;;;;;;17.70;9.20;;;;;;;15.45;98.34;102351.06;5055090;28;20511;-43
2022/07/11 06:25:40;;;;;;;18.80;8.68;;;;;;;15.42;98.57;102345.75;5055021;28;20044;-43
2022/07/11 06:28:05;;;;;;;20.35;9.50;;;;;;;15.38;98.61;102349.06;5055077;28;20032;-42
2022/07/11 06:30:31;;;;;;;16.27;8.18;;;;;;;15.37;98.03;102346.44;5055108;28;20031;-42
2022/07/11 06:32:59;;;;;;;15.10;8.02;;;;;;;15.40;98.79;102351.72;5054649;28;20487;-45
2022/07/11 06:35:24;;;;;;;15.38;7.20;;;;;;;15.44;97.64;102351.88;5055771;28;20032;-41
2022/07/11 06:37:49;;;;;;;14.45;6.80;;;;;;;15.51;97.29;102357.28;5054870;28;20029;-42
2022/07/11 06:40:17;;;;;;;19.27;6.97;;;;;;;15.62;97.29;102354.22;5054615;28;20025;-43
2022/07/11 06:42:43;;;;;;;12.95;6.25;;;;;;;15.76;96.37;102352.06;5054849;28;20037;-41
2022/07/11 06:45:08;;;;;;;9.93;6.63;;;;;;;15.93;95.61;102349.13;5054071;28;20021;-45
2022/07/11 06:47:34;;;;;;;12.00;6.50;;;;;;;16.06;95.51;102342.59;5055322;28;20415;-42
2022/07/11 06:49:59;;;;;;;13.98;6.18;;;;;;;16.22;93.58;102351.78;5054889;28;20495;-42
2022/07/11 06:52:24;;;;;;;10.73;5.80;;;;;;;16.43;92.87;102347.19;5054141;28;20029;-44
2022/07/11 06:54:50;;;;;;;11.95;5.15;;;;;;;16.62;90.72;102332.97;5054797;28;20500;-43
2022/07/11 06:57:15;;;;;;;8.38;4.65;;;;;;;16.78;90.10;102336.91;5054364;28;20071;-42
2022/07/11 06:59:40;;;;;;;11.35;5.55;;;;;;;16.94;89.15;102335.63;5054148;28;20047;-44
2022/07/11 07:02:06;;;;;;;7.70;4.40;;;;;;;17.08;89.40;102328.19;5054368;28;20044;-45
2022/07/11 07:04:31;;;;;;;10.85;4.55;;;;;;;17.20;87.34;102329.38;5054368;28;20046;-41
2022/07/11 07:06:58;;;;;;;10.75;4.45;;;;;;;17.37;86.39;102329.78;5053571;28;20471;-42
2022/07/11 07:09:24;;;;;;;5.75;3.38;;;;;;;17.68;85.71;102331.41;5054329;28;20437;-43
2022/07/11 07:11:49;;;;;;;8.18;3.45;;;;;;;17.88;86.40;102337.13;5054241;28;20040;-42
2022/07/11 07:14:14;;;;;;;9.40;4.95;;;;;;;17.88;82.81;102333.59;5053878;28;20480;-43
2022/07/11 07:16:40;;;;;;;7.40;3.75;;;;;;;18.01;82.42;102330.47;5054618;28;20028;-43
2022/07/11 07:19:05;;;;;;;7.88;4.68;;;;;;;18.08;82.09;102329.75;5053943;28;20048;-44
2022/07/11 07:21:30;;;;;;;7.95;3.95;;;;;;;18.08;81.87;102328.88;5054143;28;20036;-44
2022/07/11 07:23:56;;;;;;;9.48;4.00;;;;;;;18.14;81.79;102330.75;5054254;28;20035;-44
2022/07/11 07:26:21;;;;;;;9.43;4.32;;;;;;;18.27;81.04;102318.00;5053904;28;20032;-43
2022/07/11 07:28:46;;;;;;;9.10;4.22;;;;;;;18.37;80.19;102329.53;5053430;28;20025;-44
2022/07/11 07:31:12;;;;;;;9.60;4.05;;;;;;;18.26;78.95;102326.66;5054374;28;20029;-44
2022/07/11 07:33:37;;;;;;;11.85;4.85;;;;;;;18.31;80.77;102329.38;5054161;28;20056;-43
2022/07/11 07:36:03;;;;;;;11.32;4.85;;;;;;;18.20;79.85;102326.53;5053360;28;20032;-43
2022/07/11 07:38:28;;;;;;;12.60;4.18;;;;;;;18.15;80.37;102322.94;5054095;28;20037;-43
2022/07/11 07:40:54;;;;;;;11.13;5.10;;;;;;;17.99;80.25;102326.06;5053689;28;20032;-43
2022/07/11 07:43:19;;;;;;;11.00;4.93;;;;;;;17.92;80.78;102336.34;5053127;28;20399;-43
2022/07/11 07:45:45;;;;;;;9.98;5.07;;;;;;;18.00;81.09;102333.03;5053958;28;20025;-43
2022/07/11 07:48:10;;;;;;;9.57;5.28;;;;;;;18.01;80.26;102335.69;5053578;28;20036;-43
2022/07/11 07:50:38;;;;;;;11.13;4.75;;;;;;;18.06;81.65;102341.00;5053436;28;20025;-44
2022/07/11 07:53:04;;;;;;;8.10;3.92;;;;;;;18.00;81.54;102341.75;5053425;28;20476;-43
2022/07/11 07:55:29;;;;;;;8.90;4.85;;;;;;;17.94;81.47;102339.00;5052941;28;20044;-42
2022/07/11 07:57:54;;;;;;;10.85;4.70;;;;;;;17.88;81.38;102341.44;5053309;28;20041;-43
2022/07/11 08:03:09;;;;;;;10.50;4.57;;;;;;;17.60;81.46;102353.81;5053046;28;20135;-43
2022/07/11 08:05:35;;;;;;;11.48;4.40;;;;;;;17.62;82.07;102357.34;5053504;28;20358;-43
2022/07/11 08:08:00;;;;;;;7.95;4.20;;;;;;;17.62;81.67;102346.91;5053083;28;20040;-42
2022/07/11 08:10:26;;;;;;;9.32;4.45;;;;;;;17.82;82.58;102350.00;5052589;28;20028;-42
2022/07/11 08:12:51;;;;;;;11.32;4.90;;;;;;;17.92;81.12;102349.38;5053518;28;20021;-45
2022/07/11 08:15:16;;;;;;;12.27;4.53;;;;;;;17.92;81.07;102346.78;5053080;28;20045;-44
2022/07/11 08:17:42;;;;;;;9.80;5.05;;;;;;;17.85;80.59;102349.19;5052408;28;20025;-45
2022/07/11 08:20:07;;;;;;;9.52;4.82;;;;;;;17.80;81.23;102351.69;5052207;28;20021;-44
2022/07/11 08:22:33;;;;;;;11.90;5.80;;;;;;;17.75;81.70;102364.63;5052927;28;20021;-43
2022/07/11 08:24:58;;;;;;;13.63;5.95;;;;;;;17.74;82.39;102357.66;5052309;28;20104;-42
2022/07/11 08:27:24;;;;;;;11.65;6.38;;;;;;;17.69;82.14;102354.03;5053172;28;20033;-44
2022/07/11 08:29:49;;;;;;;11.02;5.53;;;;;;;17.71;83.57;102354.94;5052794;28;20024;-42
2022/07/11 08:32:14;;;;;;;12.77;6.43;;;;;;;17.71;82.36;102359.28;5052341;28;20082;-42
2022/07/11 08:34:40;;;;;;;14.05;7.13;;;;;;;17.72;82.24;102358.47;5052945;28;20025;-44
2022/07/11 08:37:05;;;;;;;20.33;7.53;;;;;;;17.77;82.41;102362.06;5052440;28;20453;-43
2022/07/11 08:39:33;;;;;;;14.93;7.50;;;;;;;17.83;81.50;102361.31;5052077;28;20033;-42
2022/07/11 08:41:58;;;;;;;14.93;6.80;;;;;;;17.93;82.13;102363.31;5052859;28;20029;-46
2022/07/11 08:44:24;;;;;;;10.68;6.38;;;;;;;18.05;82.53;102357.50;5052461;28;20025;-44
2022/07/11 08:46:52;;;;;;;15.63;7.05;;;;;;;18.07;81.47;102359.28;5052194;28;20028;-44
2022/07/11 08:49:18;;;;;;;12.73;7.30;;;;;;;18.19;81.29;102356.09;5052494;28;20025;-46
2022/07/11 08:51:46;;;;;;;13.93;7.38;;;;;;;18.39;80.44;102353.03;5051828;28;20029;-43
2022/07/11 08:54:12;;;;;;;15.75;7.97;;;;;;;18.67;79.63;102351.88;5052474;28;20036;-45
2022/07/11 08:56:37;;;;;;;13.82;7.50;;;;;;;18.91;78.68;102358.47;5052580;28;20369;-44
2022/07/11 08:59:04;;;;;;;15.80;7.53;;;;;;;19.21;78.41;102352.03;5051685;28;20039;-42
2022/07/11 09:01:37;;;;;;;13.27;7.82;;;;;;;19.36;76.85;102352.31;5052566;28;20085;-45
2022/07/11 09:04:06;;;;;;;15.52;8.88;;;;;;;19.26;75.85;102360.84;5052091;28;20048;-43
2022/07/11 09:06:32;;;;;;;24.95;10.02;;;;;;;19.22;75.95;102356.41;5051940;28;20107;-45
2022/07/11 09:09:00;;;;;;;17.95;8.82;;;;;;;19.08;76.02;102354.44;5052317;28;20108;-43
2022/07/11 09:11:26;;;;;;;16.90;8.35;;;;;;;19.13;77.12;102353.66;5052257;28;20025;-42
2022/07/11 09:13:51;;;;;;;26.33;10.85;;;;;;;19.33;76.38;102352.25;5051810;28;20590;-41
2022/07/11 09:16:17;;;;;;;23.92;10.40;;;;;;;19.40;74.63;102353.25;5052347;28;20108;-44
2022/07/11 09:18:42;;;;;;;21.88;10.30;;;;;;;19.42;75.52;102351.53;5052145;28;20037;-42
2022/07/11 09:26:59;;;;;;;20.10;10.90;;;;;;;19.28;75.08;102348.69;5029364;28;20067;-45
2022/07/11 09:29:25;;;;;;;17.58;9.63;;;;;;;19.44;76.23;102348.94;5042908;28;20037;-42
2022/07/11 09:31:51;;;;;;;17.10;9.40;;;;;;;19.46;75.03;102348.13;5055679;28;20063;-43
2022/07/11 09:34:19;;;;;;;19.23;9.65;;;;;;;19.68;75.06;102359.81;5055955;28;20119;-42
2022/07/11 09:36:54;;;;;;;18.85;9.88;;;;;;;19.94;74.79;102356.75;5056233;28;20029;-43
2022/07/11 09:39:24;;;;;;;14.38;8.35;;;;;;;20.30;72.87;102357.25;5055889;28;20025;-46
2022/07/11 09:41:54;;;;;;;15.75;9.07;;;;;;;20.69;72.90;102351.59;5055444;28;20078;-46
2022/07/11 09:44:22;;;;;;;20.30;10.35;;;;;;;20.79;71.07;102349.16;5056015;28;20025;-43
2022/07/11 09:46:50;;;;;;;17.17;9.13;;;;;;;21.33;69.12;102345.31;5055926;28;20056;-44
2022/07/11 09:49:17;;;;;;;14.30;7.97;;;;;;;21.52;66.46;102348.97;5055487;28;20105;-42
2022/07/11 09:51:43;;;;;;;16.60;8.02;;;;;;;21.53;65.84;102347.22;5056125;28;20052;-45
2022/07/11 09:54:10;;;;;;;15.82;7.78;;;;;;;21.52;67.18;102348.06;5055747;28;20052;-47
2022/07/11 09:56:41;;;;;;;15.52;7.60;;;;;;;21.45;67.60;102346.28;5055380;28;20048;-42
2022/07/11 09:59:10;;;;;;;15.05;8.57;;;;;;;21.29;66.10;102340.91;5056000;28;20052;-43
2022/07/11 10:01:36;;;;;;;13.98;7.75;;;;;;;21.23;67.74;102348.72;5055837;28;20082;-47
2022/07/11 10:04:05;;;;;;;14.88;7.72;;;;;;;21.14;67.08;102346.00;5055235;28;20028;-45
2022/07/11 10:06:30;;;;;;;12.60;7.40;;;;;;;21.14;67.32;102351.25;5055785;28;20372;-46
2022/07/11 10:08:55;;;;;;;13.68;7.63;;;;;;;21.02;67.12;102347.63;5055424;28;20021;-45
2022/07/11 10:11:21;;;;;;;15.68;7.22;;;;;;;20.85;68.37;102350.09;5054809;28;20025;-45
2022/07/11 10:13:47;;;;;;;14.05;7.35;;;;;;;20.84;68.96;102347.47;5055757;28;20021;-45
2022/07/11 10:16:22;;;;;;;14.32;7.93;;;;;;;20.91;69.92;102351.88;5054751;28;20020;-46
2022/07/11 10:19:07;;;;;;;13.60;7.35;;;;;;;20.96;69.06;102342.31;5055569;28;20033;-45
2022/07/11 10:21:50;;;;;;;10.02;6.70;;;;;;;20.88;68.66;102349.25;5055303;28;20052;-44
2022/07/11 10:24:27;;;;;;;11.02;6.13;;;;;;;20.98;69.02;102351.09;5054760;28;20094;-45
2022/07/11 10:27:05;;;;;;;10.35;5.88;;;;;;;21.10;69.32;102349.47;5055280;28;20032;-47
2022/07/11 10:29:53;;;;;;;11.40;6.20;;;;;;;21.26;69.78;102364.47;5055249;28;20033;-43
2022/07/11 10:32:19;;;;;;;8.90;5.95;;;;;;;21.03;67.31;102362.50;5054877;28;20087;-47
2022/07/11 10:34:46;;;;;;;8.52;5.85;;;;;;;20.81;67.85;102358.78;5055307;28;20020;-46
2022/07/11 10:37:12;;;;;;;;;;;;;;;20.98;68.04;102365.94;5054838;28;20086;-45
2022/07/11 10:39:38;;;;;;;10.75;5.30;;;;;;;20.57;68.25;102364.56;5055261;28;19913;-45
2022/07/11 10:42:05;;;;;;;10.98;6.03;;;;;;;20.50;69.52;102363.63;5053825;28;20021;-44
2022/07/11 10:44:47;;;;;;;;;;;;;;;20.65;69.34;102367.28;5054983;28;20091;-44
2022/07/11 10:47:32;;;;;;;11.10;7.03;;;;;;;20.35;70.12;102366.91;5055010;28;19913;-45
2022/07/11 10:50:00;;;;;;;16.25;6.63;;;;;;;20.13;70.33;102372.69;5054671;28;20029;-46
2022/07/11 10:52:26;;;;;;;10.40;6.30;;;;;;;19.95;71.14;102368.97;5054231;28;20029;-43
2022/07/11 10:55:06;;;;;;;9.82;6.32;;;;;;;19.92;72.32;102373.28;5054727;28;20443;-47
2022/07/11 10:58:09;;;;;;;9.85;5.80;;;;;;;19.94;72.05;102361.97;5054577;28;20044;-43
2022/07/11 11:00:34;;;;;;;8.48;5.38;;;;;;;19.88;71.72;102369.72;5054449;28;20040;-43
2022/07/11 11:03:07;;;;;;;11.80;6.38;;;;;;;19.88;71.52;102364.50;5054704;28;20021;-43
2022/07/11 11:05:49;;;;;;;9.80;5.55;;;;;;;19.93;71.77;102364.56;5054554;28;20518;-46
2022/07/11 11:08:32;;;;;;;10.82;6.00;;;;;;;20.12;71.56;102368.34;5054674;28;20101;-44
2022/07/11 11:11:02;;;;;;;8.85;4.93;;;;;;;20.27;70.06;102371.19;5054540;28;20032;-46
2022/07/11 11:13:28;;;;;;;7.22;4.85;;;;;;;20.55;70.59;102369.81;5054282;28;20025;-44
2022/07/11 11:15:58;;;;;;;7.93;3.83;;;;;;;20.78;69.47;102365.72;5054521;28;20391;-46
2022/07/11 11:18:23;;;;;;;5.95;4.05;;;;;;;21.14;68.22;102361.75;5054320;28;20037;-46
2022/07/11 11:20:57;;;;;;;7.78;4.50;;;;;;;21.59;67.38;102365.66;5053820;28;20040;-45
2022/07/11 11:23:24;;;;;;;7.97;4.35;;;;;;;22.00;65.81;102366.81;5054363;28;20021;-44
2022/07/11 11:25:50;;;;;;;4.95;3.22;;;;;;;22.26;64.41;102368.69;5054283;28;20041;-44